M I D A S
Marine Information and Data Acquisition System
Tripno 2170 of the Zeeleeuw from 2011-08-24 07:46:48 to 2011-08-24 18:34:13
Back to CruiseResearch ActivitiesStationsMapUnderway DataData graphs

EquipmentUnitsComment
TimeDGPSUTC
LatitudeDGPSDM.mWGS84
LongitudeDGPSDM.mWGS84
HeadingGyrodeg 
SOGDGPSknotsSpeed over ground
COGDGPSdegCourse over ground
DepthEcho soundermeters200 kHz
Missing or incorrect values are displayed as -999
Navigation data collected by the RV Zeeleeuw from 2011-08-24 07:37:39 to 2011-08-24 18:44:02
Time Latitude Longitude Heading SOG COG Depth
2011-08-24 07:38:48 51°13.653 2°55.943 109 3.2 288 -999
2011-08-24 07:39:48 51°13.684 2°55.846 120.9 4.8 301 -999
2011-08-24 07:40:48 51°13.732 2°55.734 130.3 5.1 309 -999
2011-08-24 07:41:48 51°13.79 2°55.654 154.2 5.1 332 -999
2011-08-24 07:42:48 51°13.878 2°55.621 181.5 5.2 359 -999
2011-08-24 07:43:48 51°13.944 2°55.642 208.3 3.1 23 13.6
2011-08-24 07:44:45 51°13.961 2°55.649 246.1 1.2 264 14.1
2011-08-24 07:45:44 51°13.995 2°55.569 321.1 6.3 321 13.5
2011-08-24 07:46:45 51°14.114 2°55.443 331.2 9.7 330 -999
2011-08-24 07:47:48 51°14.271 2°55.298 331.8 10.7 331 -999
2011-08-24 07:48:47 51°14.427 2°55.152 329.6 11.3 328 13.2
2011-08-24 07:49:45 51°14.584 2°54.999 329.6 11.6 330 13.6
2011-08-24 07:50:44 51°14.708 2°54.798 293.8 10.7 294 13.5
2011-08-24 07:51:44 51°14.729 2°54.507 265 11.6 267 12.3
2011-08-24 07:52:44 51°14.702 2°54.201 260.1 11.7 261 12
2011-08-24 07:53:44 51°14.684 2°53.891 266.6 11.7 271 11.9
2011-08-24 07:54:44 51°14.703 2°53.576 275.8 12 277 11.5
2011-08-24 07:55:44 51°14.716 2°53.26 274 11.9 277 11.4
2011-08-24 07:56:44 51°14.744 2°52.948 275.8 11.9 276 11.5
2011-08-24 07:57:44 51°14.753 2°52.633 273.9 11.9 277 11.7
2011-08-24 07:58:44 51°14.776 2°52.322 271.7 11.7 272 11.9
2011-08-24 07:59:44 51°14.786 2°52.008 276.1 12 277 12.3
2011-08-24 08:00:44 51°14.801 2°51.693 270 11.9 271 12.7
2011-08-24 08:01:44 51°14.807 2°51.379 271 11.8 272 13.1
2011-08-24 08:02:44 51°14.83 2°51.068 276.9 11.8 278 13.4
2011-08-24 08:03:44 51°14.837 2°50.758 265.7 11.7 267 13.8
2011-08-24 08:04:44 51°14.842 2°50.448 274.4 11.7 275 14
2011-08-24 08:05:44 51°14.847 2°50.139 269.4 11.7 271 14.4
2011-08-24 08:06:44 51°14.863 2°49.83 271.6 11.7 272 14.7
2011-08-24 08:07:44 51°14.863 2°49.52 268.9 11.7 270 14.7
2011-08-24 08:08:44 51°14.871 2°49.209 271.7 11.7 274 14.7
2011-08-24 08:09:44 51°14.881 2°48.898 271 11.7 272 14.7
2011-08-24 08:10:44 51°14.88 2°48.588 265.7 11.7 266 14.5
2011-08-24 08:11:44 51°14.868 2°48.278 267.7 11.7 269 14.4
2011-08-24 08:12:44 51°14.848 2°47.973 262 11.6 263 15.1
2011-08-24 08:13:44 51°14.83 2°47.667 264.7 11.5 266 15
2011-08-24 08:14:44 51°14.817 2°47.362 265.7 11.6 267 15.1
2011-08-24 08:15:44 51°14.81 2°47.054 266.3 11.6 266 14.5
2011-08-24 08:16:44 51°14.784 2°46.747 261.4 11.8 264 12.9
2011-08-24 08:17:44 51°14.773 2°46.432 264 11.8 264 11.4
2011-08-24 08:18:44 51°14.746 2°46.12 261.5 11.9 263 11
2011-08-24 08:19:44 51°14.726 2°45.806 265 11.9 265 11.6
2011-08-24 08:20:44 51°14.694 2°45.501 255.2 11.6 254 12.8
2011-08-24 08:21:44 51°14.633 2°45.208 250.8 11.7 252 13.5
2011-08-24 08:22:44 51°14.583 2°44.91 255.5 11.7 256 14.3
2011-08-24 08:23:44 51°14.526 2°44.616 251.2 11.6 252 15.3
2011-08-24 08:24:44 51°14.468 2°44.323 250.3 11.6 252 15.9
2011-08-24 08:25:44 51°14.391 2°44.041 244.7 11.6 244 16.4
2011-08-24 08:26:44 51°14.325 2°43.751 249.9 11.6 249 17
2011-08-24 08:27:44 51°14.246 2°43.468 245.2 11.6 246 17.3
2011-08-24 08:28:44 51°14.174 2°43.18 249.6 11.7 249 17.7
2011-08-24 08:29:44 51°14.096 2°42.897 245.1 11.6 246 17.6
2011-08-24 08:30:44 51°14.018 2°42.613 249 11.8 251 17.4
2011-08-24 08:31:44 51°13.952 2°42.317 250.1 11.9 250 17.8
2011-08-24 08:32:44 51°13.879 2°42.025 244.7 11.9 244 18
2011-08-24 08:33:44 51°13.795 2°41.738 244.5 12 245 17.8
2011-08-24 08:34:44 51°13.725 2°41.442 250.1 11.9 249 18.1
2011-08-24 08:35:44 51°13.645 2°41.154 245.4 11.9 245 18.1
2011-08-24 08:36:44 51°13.57 2°40.862 249.4 11.9 252 17.8
2011-08-24 08:37:44 51°13.5 2°40.567 246.9 11.8 247 17.1
2011-08-24 08:38:44 51°13.42 2°40.279 246.8 11.9 248 16.9
2011-08-24 08:39:44 51°13.353 2°39.981 248.7 11.9 249 16.4
2011-08-24 08:40:44 51°13.277 2°39.69 247.1 11.8 248 16.8
2011-08-24 08:41:44 51°13.202 2°39.4 246.3 11.9 247 16.7
2011-08-24 08:42:44 51°13.125 2°39.111 246.1 11.8 247 16
2011-08-24 08:43:44 51°13.054 2°38.818 249.7 11.8 251 14
2011-08-24 08:44:44 51°12.983 2°38.525 245.9 11.9 246 15.5
2011-08-24 08:45:44 51°12.91 2°38.235 250 11.5 251 15.4
2011-08-24 08:46:44 51°12.866 2°37.982 253.4 7.4 256 15
2011-08-24 08:47:44 51°12.862 2°37.841 274.7 4.1 282 14.8
2011-08-24 08:48:44 51°12.893 2°37.762 298.2 3.4 309 14.6
2011-08-24 08:49:44 51°12.928 2°37.687 295 3.6 306 14.4
2011-08-24 08:50:44 51°12.962 2°37.628 307.8 1.4 338 14.3
2011-08-24 08:51:46 51°12.971 2°37.646 329.6 0.9 55 -999
2011-08-24 08:52:47 51°12.98 2°37.667 346.1 1 61 -999
2011-08-24 08:53:46 51°12.992 2°37.689 351.8 1 59 14.3
2011-08-24 08:54:44 51°13.003 2°37.71 357.5 1 65 15
2011-08-24 08:55:44 51°13.01 2°37.734 1.5 1 64 14.3
2011-08-24 08:56:44 51°13.017 2°37.758 1.5 1 65 14.5
2011-08-24 08:57:44 51°13.025 2°37.783 0.2 1 62 14.5
2011-08-24 08:58:44 51°13.033 2°37.805 357.9 1 58 14.4
2011-08-24 08:59:44 51°13.042 2°37.827 354.3 1 58 14.9
2011-08-24 09:00:44 51°13.053 2°37.849 350.7 1.1 53 14.7
2011-08-24 09:01:44 51°13.063 2°37.87 346 1 54 14.7
2011-08-24 09:02:44 51°13.074 2°37.891 344.2 1 51 15
2011-08-24 09:03:44 51°13.084 2°37.912 341.9 1 50 14.9
2011-08-24 09:04:44 51°13.095 2°37.932 338.3 1.1 47 15.1
2011-08-24 09:05:44 51°13.106 2°37.952 335.1 1.1 50 15.1
2011-08-24 09:06:44 51°13.118 2°37.972 333.1 1.1 51 15
2011-08-24 09:07:44 51°13.13 2°37.991 329.4 1.1 34 15.3
2011-08-24 09:08:44 51°13.147 2°37.999 314.2 1.2 -999 15.2
2011-08-24 09:09:44 51°13.165 2°37.983 281.6 1.3 309 15.1
2011-08-24 09:10:44 51°13.169 2°37.952 244.6 1.2 252 14.8
2011-08-24 09:11:44 51°13.149 2°37.928 213.5 1.9 203 14.8
2011-08-24 09:12:44 51°13.114 2°37.906 210.6 2.5 201 14.9
2011-08-24 09:13:44 51°13.075 2°37.878 214 2.7 207 14.8
2011-08-24 09:14:44 51°13.042 2°37.839 232.4 2 228 14.8
2011-08-24 09:15:44 51°13.028 2°37.811 238.6 0.9 238 14.4
2011-08-24 09:16:44 51°13.022 2°37.798 237.2 0.3 231 14.5
2011-08-24 09:17:44 51°13.02 2°37.796 234.5 -999 121 14.4
2011-08-24 09:18:44 51°13.019 2°37.796 240.3 0.1 209 14.4
2011-08-24 09:19:44 51°13.02 2°37.797 253.1 0.2 47 14.5
2011-08-24 09:20:44 51°13.025 2°37.804 265.8 0.5 39 14.5
2011-08-24 09:21:44 51°13.034 2°37.81 275.9 0.7 21 14.2
2011-08-24 09:22:44 51°13.044 2°37.818 289 0.9 32 14.6
2011-08-24 09:23:44 51°13.056 2°37.832 303 0.9 38 14.6
2011-08-24 09:24:44 51°13.067 2°37.849 318.5 1 47 14.3
2011-08-24 09:25:44 51°13.078 2°37.868 331.5 1 48 14.5
2011-08-24 09:26:44 51°13.087 2°37.887 339.7 1 56 14.7
2011-08-24 09:27:44 51°13.096 2°37.909 347.7 1 56 14.8
2011-08-24 09:28:44 51°13.105 2°37.932 354 1 54 14.8
2011-08-24 09:29:44 51°13.12 2°37.949 343.6 1.4 16 14.8
2011-08-24 09:30:44 51°13.145 2°37.947 314.5 1.6 342 14.8
2011-08-24 09:31:44 51°13.163 2°37.914 272.8 2.1 281 14.7
2011-08-24 09:32:44 51°13.151 2°37.873 221.9 1.5 217 14.6
2011-08-24 09:33:44 51°13.131 2°37.862 208.4 1.2 186 14.3
2011-08-24 09:34:44 51°13.113 2°37.858 215.6 0.9 193 14.5
2011-08-24 09:35:44 51°13.103 2°37.853 228.3 0.5 210 14.3
2011-08-24 09:36:44 51°13.097 2°37.845 239.9 0.4 226 14.5
2011-08-24 09:37:44 51°13.094 2°37.837 248.6 0.3 265 14.4
2011-08-24 09:38:44 51°13.093 2°37.829 250.1 0.3 272 14.4
2011-08-24 09:39:44 51°13.093 2°37.824 240.3 0.1 239 14.2
2011-08-24 09:40:44 51°13.091 2°37.823 230.5 0.2 196 14.4
2011-08-24 09:41:44 51°13.086 2°37.816 240.9 1 245 14.4
2011-08-24 09:42:44 51°13.089 2°37.784 284.8 1.5 304 14.2
2011-08-24 09:43:44 51°13.113 2°37.761 322.1 1.6 345 14.2
2011-08-24 09:44:44 51°13.138 2°37.757 325.4 1.6 12 13.9
2011-08-24 09:45:44 51°13.156 2°37.758 319.7 1 7 13.9
2011-08-24 09:46:44 51°13.171 2°37.764 317.6 0.9 21 13.8
2011-08-24 09:47:44 51°13.184 2°37.773 316.8 0.8 28 13.8
2011-08-24 09:48:44 51°13.195 2°37.784 317.2 0.8 33 13.8
2011-08-24 09:49:44 51°13.208 2°37.797 319.9 1 10 13.7
2011-08-24 09:50:44 51°13.246 2°37.768 318.7 2.7 329 13.3
2011-08-24 09:51:44 51°13.287 2°37.735 327.6 3.3 339 12.7
2011-08-24 09:52:44 51°13.345 2°37.755 37.1 3.9 38 12.4
2011-08-24 09:53:44 51°13.358 2°37.851 111.3 3.8 109 13.1
2011-08-24 09:54:44 51°13.31 2°37.91 168.5 4.2 160 13.7
2011-08-24 09:55:44 51°13.235 2°37.947 173.1 4.7 168 14.1
2011-08-24 09:56:44 51°13.161 2°37.938 197 4.4 192 14.6
2011-08-24 09:57:44 51°13.102 2°37.927 191 2.8 180 14.6
2011-08-24 09:58:44 51°13.069 2°37.928 197 1.6 180 14.6
2011-08-24 09:59:44 51°13.051 2°37.931 199 0.8 158 14.4
2011-08-24 10:00:44 51°13.041 2°37.941 196.6 0.7 137 14.6
2011-08-24 10:01:44 51°13.036 2°37.954 194.1 0.6 111 14.6
2011-08-24 10:02:44 51°13.033 2°37.97 192.4 0.7 103 14.6
2011-08-24 10:03:44 51°12.998 2°37.983 180.6 3 170 14.7
2011-08-24 10:04:44 51°12.946 2°38.001 176.5 3.3 164 14.7
2011-08-24 10:05:44 51°12.903 2°38.019 180.3 2.1 163 14.7
2011-08-24 10:06:44 51°12.876 2°38.034 182.6 1.3 158 14.4
2011-08-24 10:07:44 51°12.861 2°38.048 183.7 0.8 149 14.7
2011-08-24 10:08:44 51°12.852 2°38.064 184.6 0.8 139 14.5
2011-08-24 10:09:44 51°12.833 2°38.063 216.2 1.4 205 14.4
2011-08-24 10:10:44 51°12.821 2°38.027 259.6 1.8 269 14.4
2011-08-24 10:11:44 51°12.839 2°37.979 305.1 2.6 317 14.5
2011-08-24 10:12:44 51°12.876 2°37.926 306.1 3.3 317 14.5
2011-08-24 10:13:44 51°12.915 2°37.863 303.7 3.4 313 14.3
2011-08-24 10:14:44 51°12.951 2°37.803 301.2 2.3 316 14
2011-08-24 10:15:44 51°12.966 2°37.799 297.4 0.8 61 14.1
2011-08-24 10:16:47 51°12.974 2°37.82 321.4 0.9 61 14.1
2011-08-24 10:17:46 51°12.983 2°37.837 337.9 0.8 51 14.1
2011-08-24 10:18:44 51°12.99 2°37.854 351.1 0.8 55 14.1
2011-08-24 10:19:44 51°12.998 2°37.872 359.4 0.9 58 14.2
2011-08-24 10:20:44 51°13.006 2°37.89 2 0.8 50 14.3
2011-08-24 10:21:44 51°13.016 2°37.906 359.8 0.8 51 14.3
2011-08-24 10:22:44 51°13.025 2°37.924 355.8 0.9 50 14.3
2011-08-24 10:23:44 51°13.034 2°37.94 349.7 0.8 48 14.3
2011-08-24 10:24:44 51°13.043 2°37.956 345.9 0.8 49 14.5
2011-08-24 10:25:44 51°13.051 2°37.974 343.7 0.8 54 14.5
2011-08-24 10:26:44 51°13.06 2°37.991 341.6 0.9 40 14.5
2011-08-24 10:27:44 51°13.079 2°37.994 317.8 1.4 349 14.4
2011-08-24 10:28:44 51°13.098 2°37.973 289 1.4 311 14.5
2011-08-24 10:29:44 51°13.107 2°37.943 263.9 0.9 290 14.2
2011-08-24 10:30:44 51°13.113 2°37.929 264.2 0.5 328 14.1
2011-08-24 10:31:44 51°13.12 2°37.928 274 0.6 11 14.1
2011-08-24 10:32:44 51°13.131 2°37.934 291.4 0.8 29 14
2011-08-24 10:33:44 51°13.145 2°37.945 310.2 0.9 28 13.9
2011-08-24 10:34:44 51°13.159 2°37.956 323.3 1 17 14.2
2011-08-24 10:35:44 51°13.178 2°37.954 313.2 1.4 338 13.9
2011-08-24 10:36:44 51°13.196 2°37.923 276.7 1.7 294 13.8
2011-08-24 10:37:44 51°13.193 2°37.881 232.8 1.7 234 13.9
2011-08-24 10:38:44 51°13.163 2°37.856 208.4 2.4 202 13.8
2011-08-24 10:39:44 51°13.121 2°37.842 191.9 2.6 184 13.8
2011-08-24 10:40:44 51°13.088 2°37.843 189.5 1.5 173 13.9
2011-08-24 10:41:44 51°13.069 2°37.85 188.9 1 161 13.7
2011-08-24 10:42:44 51°13.057 2°37.86 188.1 0.7 137 14
2011-08-24 10:43:44 51°13.051 2°37.873 186 0.6 120 13.9
2011-08-24 10:44:44 51°13.047 2°37.887 181.6 0.6 109 14.1
2011-08-24 10:45:44 51°13.046 2°37.903 178.2 0.6 95 14
2011-08-24 10:46:44 51°13.046 2°37.92 176.5 0.6 90 14.1
2011-08-24 10:47:44 51°13.047 2°37.937 174.1 0.7 78 14.1
2011-08-24 10:48:44 51°13.049 2°37.955 170.3 0.7 66 14
2011-08-24 10:49:44 51°13.052 2°37.972 163.2 0.7 70 14.2
2011-08-24 10:50:44 51°13.056 2°37.99 156 0.8 94 14.4
2011-08-24 10:51:44 51°13.04 2°38.009 182.4 1.3 160 14.3
2011-08-24 10:52:44 51°13.012 2°37.997 221.5 1.8 220 14.4
2011-08-24 10:53:44 51°12.997 2°37.972 232.7 1.1 231 14.2
2011-08-24 10:54:44 51°12.991 2°37.953 246.9 0.5 249 14
2011-08-24 10:55:44 51°12.992 2°37.944 253.7 0.3 317 14.2
2011-08-24 10:56:44 51°12.997 2°37.943 266.3 0.4 12 14.1
2011-08-24 10:57:44 51°13.006 2°37.947 285.5 0.7 356 14.2
2011-08-24 10:58:44 51°13.022 2°37.932 298.4 1.7 320 14.1
2011-08-24 10:59:44 51°13.057 2°37.897 324.5 3.1 331 14
2011-08-24 11:00:44 51°13.101 2°37.854 317.2 2.8 323 13.7
2011-08-24 11:01:44 51°13.125 2°37.809 287.4 1.9 298 13.6
2011-08-24 11:02:44 51°13.132 2°37.768 261.7 1.4 273 13.4
2011-08-24 11:03:44 51°13.14 2°37.773 249.3 1.4 56 -999
2011-08-24 11:04:47 51°13.151 2°37.804 249.8 0.4 45 13.4
2011-08-24 11:05:45 51°13.152 2°37.802 225.6 0.2 223 13.3
2011-08-24 11:06:44 51°13.147 2°37.805 193.2 0.4 132 13.3
2011-08-24 11:07:44 51°13.144 2°37.816 175.4 0.5 99 13.2
2011-08-24 11:08:44 51°13.144 2°37.829 164.4 0.5 89 13.5
2011-08-24 11:09:44 51°13.14 2°37.846 161.8 1 131 13.6
2011-08-24 11:10:44 51°13.12 2°37.861 178.5 1.6 168 13.6
2011-08-24 11:11:44 51°13.094 2°37.864 193.5 1.3 180 13.7
2011-08-24 11:12:44 51°13.081 2°37.868 191 0.7 151 13.6
2011-08-24 11:13:44 51°13.074 2°37.875 191.3 0.4 134 13.7
2011-08-24 11:14:44 51°13.07 2°37.883 191.6 0.4 114 13.6
2011-08-24 11:15:44 51°13.067 2°37.893 188.5 0.4 97 13.7
2011-08-24 11:16:44 51°13.067 2°37.905 180.9 0.5 89 13.9
2011-08-24 11:17:44 51°13.067 2°37.918 173.8 0.5 83 13.7
2011-08-24 11:18:44 51°13.068 2°37.931 165.6 0.5 86 13.9
2011-08-24 11:19:44 51°13.069 2°37.944 160.9 0.5 77 13.8
2011-08-24 11:20:44 51°13.071 2°37.958 156.9 0.6 76 14
2011-08-24 11:21:44 51°13.074 2°37.973 154.4 0.5 75 14
2011-08-24 11:22:44 51°13.069 2°37.988 166.3 1.1 147 14
2011-08-24 11:23:44 51°13.044 2°37.99 202.6 1.9 201 13.9
2011-08-24 11:24:44 51°13.022 2°37.959 235.2 1.3 234 14
2011-08-24 11:25:44 51°13.018 2°37.954 249 0.6 81 14
2011-08-24 11:26:47 51°13.018 2°37.963 230.6 0.7 213 13.9
2011-08-24 11:27:45 51°13.002 2°37.956 186 1.4 178 14
2011-08-24 11:28:44 51°12.973 2°37.969 164.9 2.1 161 14
2011-08-24 11:29:44 51°12.947 2°37.987 165.5 1.5 153 13.9
2011-08-24 11:30:44 51°12.929 2°38.001 167 1 157 13.9
2011-08-24 11:31:44 51°12.906 2°38.008 190.2 1.9 187 13.9
2011-08-24 11:32:44 51°12.876 2°37.965 244.7 3.1 249 13.8
2011-08-24 11:33:44 51°12.892 2°37.886 309.5 3.2 311 13.5
2011-08-24 11:34:44 51°12.933 2°37.839 328.5 2.7 331 13.3
2011-08-24 11:35:44 51°12.96 2°37.821 331.5 0.5 10 13.4
2011-08-24 11:36:44 51°12.963 2°37.827 340.4 0.3 45 13.2
2011-08-24 11:37:44 51°12.967 2°37.834 351.4 0.3 54 13.3
2011-08-24 11:38:44 51°12.972 2°37.842 358.2 0.4 48 13.5
2011-08-24 11:39:44 51°12.976 2°37.85 2.5 0.4 40 13.5
2011-08-24 11:40:44 51°12.982 2°37.858 1.6 0.5 44 13.5
2011-08-24 11:41:44 51°12.987 2°37.864 358 0.5 30 13.6
2011-08-24 11:42:44 51°12.993 2°37.87 354.4 0.5 31 13.5
2011-08-24 11:43:44 51°12.999 2°37.876 350.6 0.4 28 13.6
2011-08-24 11:44:44 51°13.005 2°37.883 350.8 0.4 27 13.4
2011-08-24 11:45:44 51°13.011 2°37.889 350.7 0.4 36 13.5
2011-08-24 11:46:44 51°13.017 2°37.894 349.1 0.4 29 13.4
2011-08-24 11:47:44 51°13.023 2°37.899 348.9 0.7 6 13.4
2011-08-24 11:48:44 51°13.061 2°37.902 18.2 3.4 22 13.6
2011-08-24 11:49:44 51°13.086 2°37.976 92.1 3.3 95 13.6
2011-08-24 11:50:44 51°13.057 2°38.036 152.3 2.8 154 13.9
2011-08-24 11:51:44 51°13.02 2°38.045 186.3 1.9 181 14
2011-08-24 11:52:44 51°12.991 2°38.037 197.2 1.6 192 13.8
2011-08-24 11:53:44 51°12.967 2°38.031 195 1.3 186 13.8
2011-08-24 11:54:44 51°12.947 2°38.03 191.3 1.2 184 13.7
2011-08-24 11:55:44 51°12.928 2°38.03 190.8 1 183 13.7
2011-08-24 11:56:44 51°12.911 2°38.031 187.4 1.4 175 13.6
2011-08-24 11:57:44 51°12.879 2°37.974 255 3.5 259 13.7
2011-08-24 11:58:44 51°12.895 2°37.886 303.7 3.2 306 13.4
2011-08-24 11:59:44 51°12.926 2°37.846 327.3 1.9 329 13
2011-08-24 12:00:44 51°12.944 2°37.833 336.1 0.8 346 13.3
2011-08-24 12:01:44 51°12.956 2°37.829 336.1 0.7 348 13.2
2011-08-24 12:02:44 51°12.965 2°37.826 332.5 0.5 356 13.3
2011-08-24 12:03:44 51°12.971 2°37.827 331.1 0.3 20 13.1
2011-08-24 12:04:44 51°12.976 2°37.831 333.7 0.3 34 13.2
2011-08-24 12:05:44 51°12.979 2°37.835 337.4 0.3 44 13.2
2011-08-24 12:06:44 51°12.983 2°37.841 344.7 0.2 51 13.2
2011-08-24 12:07:44 51°12.986 2°37.846 352.1 0.3 58 13.2
2011-08-24 12:08:44 51°12.988 2°37.852 357.4 0.3 46 13.2
2011-08-24 12:09:44 51°12.99 2°37.857 358.9 0.2 48 13.2
2011-08-24 12:10:44 51°12.993 2°37.862 359 0.3 39 13.4
2011-08-24 12:11:44 51°13.001 2°37.864 356.3 0.6 6 13.2
2011-08-24 12:12:44 51°13.011 2°37.864 351.4 0.5 2 13.2
2011-08-24 12:13:44 51°13.019 2°37.865 348.9 0.4 359 13
2011-08-24 12:14:44 51°13.029 2°37.863 348.1 1.3 350 13.1
2011-08-24 12:15:44 51°13.072 2°37.84 339 3.5 336 13.1
2011-08-24 12:16:44 51°13.134 2°37.793 334.7 4.5 336 12.8
2011-08-24 12:17:44 51°13.192 2°37.754 349.5 3.2 348 12.3
2011-08-24 12:18:44 51°13.238 2°37.777 47.2 3.2 47 12.2
2011-08-24 12:19:44 51°13.241 2°37.858 108.4 2.9 107 12.8
2011-08-24 12:20:44 51°13.223 2°37.915 123.8 2 124 13
2011-08-24 12:21:44 51°13.203 2°37.952 134.9 1.6 135 13.1
2011-08-24 12:22:44 51°13.184 2°37.978 142.1 1.4 146 13.4
2011-08-24 12:23:44 51°13.15 2°38.009 152.7 3.3 155 13.6
2011-08-24 12:24:44 51°13.079 2°38.047 163.4 5.5 166 13.6
2011-08-24 12:25:44 51°12.979 2°38.073 173.6 6.4 175 13.7
2011-08-24 12:26:44 51°12.87 2°38.069 184 6.6 187 13.5
2011-08-24 12:27:44 51°12.763 2°38.029 197.5 6.7 200 13.1
2011-08-24 12:28:44 51°12.657 2°37.971 195.5 6.7 197 13
2011-08-24 12:29:44 51°12.549 2°37.923 197.3 6.7 199 13
2011-08-24 12:30:44 51°12.45 2°37.847 208.5 6.6 210 12.9
2011-08-24 12:31:44 51°12.355 2°37.753 210 6.7 212 12.7
2011-08-24 12:32:44 51°12.258 2°37.662 207.6 6.8 209 12.6
2011-08-24 12:33:44 51°12.158 2°37.581 205 6.8 207 12.7
2011-08-24 12:34:44 51°12.059 2°37.492 209.7 6.8 212 12.7
2011-08-24 12:35:44 51°11.964 2°37.393 212 6.8 213 12.6
2011-08-24 12:36:44 51°11.866 2°37.298 209.2 6.9 210 12.6
2011-08-24 12:37:44 51°11.765 2°37.21 207.7 6.9 208 12.9
2011-08-24 12:38:44 51°11.665 2°37.121 208.1 6.9 208 12.9
2011-08-24 12:39:44 51°11.567 2°37.03 209.9 6.8 211 12.9
2011-08-24 12:40:44 51°11.47 2°36.933 211.5 6.9 212 12.9
2011-08-24 12:41:44 51°11.372 2°36.836 210.4 7 212 12.7
2011-08-24 12:42:44 51°11.274 2°36.74 210.3 6.9 211 12.6
2011-08-24 12:43:44 51°11.175 2°36.646 209.2 6.9 210 12.5
2011-08-24 12:44:44 51°11.075 2°36.555 208.3 6.9 210 12.3
2011-08-24 12:45:44 51°10.975 2°36.459 211.4 7 212 12
2011-08-24 12:46:44 51°10.878 2°36.36 210.8 6.9 211 11.7
2011-08-24 12:47:44 51°10.776 2°36.275 205 6.9 206 11.7
2011-08-24 12:48:44 51°10.671 2°36.199 204.6 6.9 206 10.9
2011-08-24 12:49:44 51°10.567 2°36.118 206.1 6.9 207 10.9
2011-08-24 12:50:44 51°10.465 2°36.037 206.5 6.9 207 10.9
2011-08-24 12:51:44 51°10.363 2°35.953 207 6.9 207 10.9
2011-08-24 12:52:44 51°10.262 2°35.866 207.9 6.9 209 10.6
2011-08-24 12:53:44 51°10.159 2°35.78 204.7 6.9 207 11.6
2011-08-24 12:54:44 51°10.056 2°35.699 204.6 6.9 207 14.8
2011-08-24 12:55:44 51°9.953 2°35.611 207 7 209 17.1
2011-08-24 12:56:44 51°9.852 2°35.518 208.4 7.1 210 18.1
2011-08-24 12:57:44 51°9.749 2°35.425 206.8 7.1 209 18.3
2011-08-24 12:58:44 51°9.645 2°35.335 204.6 7.1 207 18.8
2011-08-24 12:59:44 51°9.539 2°35.25 204.4 7.2 208 18.1
2011-08-24 13:00:44 51°9.434 2°35.16 206.2 7.2 209 17.3
2011-08-24 13:01:44 51°9.33 2°35.068 206.7 6.7 210 17.2
2011-08-24 13:02:44 51°9.246 2°35.013 188.8 4.7 194 16.5
2011-08-24 13:03:44 51°9.175 2°34.997 177.8 4 184 16.9
2011-08-24 13:04:44 51°9.11 2°34.989 179.7 3.7 188 16.2
2011-08-24 13:05:44 51°9.06 2°34.971 189.1 2.7 199 16.8
2011-08-24 13:06:44 51°9.03 2°34.946 204.6 1.6 217 16.8
2011-08-24 13:07:44 51°9.015 2°34.926 214.9 0.9 226 16.7
2011-08-24 13:08:44 51°9.009 2°34.914 214.7 0.4 240 16.7
2011-08-24 13:09:44 51°9.01 2°34.909 208.4 0.2 319 16.2
2011-08-24 13:10:44 51°9.014 2°34.907 199.7 0.4 343 16.6
2011-08-24 13:11:44 51°9.024 2°34.902 187.4 0.7 336 16.6
2011-08-24 13:12:44 51°9.035 2°34.892 175.1 0.9 327 16.1
2011-08-24 13:13:44 51°9.049 2°34.876 163.9 1.1 320 16
2011-08-24 13:14:44 51°9.063 2°34.853 151.7 1.2 310 15.9
2011-08-24 13:15:44 51°9.073 2°34.828 140.6 1.1 297 16.3
2011-08-24 13:16:44 51°9.08 2°34.802 133 0.9 286 16.2
2011-08-24 13:17:44 51°9.083 2°34.779 128.3 0.9 278 16
2011-08-24 13:18:44 51°9.084 2°34.757 124.5 0.8 274 16
2011-08-24 13:19:44 51°9.084 2°34.737 119.7 0.8 270 16.9
2011-08-24 13:20:44 51°9.084 2°34.718 113.3 0.7 262 16.4
2011-08-24 13:21:44 51°9.081 2°34.701 108.6 0.6 257 16.5
2011-08-24 13:22:44 51°9.078 2°34.685 105.3 0.6 253 16.7
2011-08-24 13:23:44 51°9.075 2°34.672 103.3 0.6 246 16.2
2011-08-24 13:24:44 51°9.071 2°34.659 102.8 0.5 247 16.1
2011-08-24 13:25:44 51°9.068 2°34.648 103.2 0.5 242 16.3
2011-08-24 13:26:44 51°9.063 2°34.635 105 0.5 240 16.3
2011-08-24 13:27:44 51°9.058 2°34.628 108.1 0.6 166 15.9
2011-08-24 13:28:44 51°9.04 2°34.647 134.4 2 151 16.4
2011-08-24 13:29:44 51°8.998 2°34.668 153.2 3 166 16.2
2011-08-24 13:30:44 51°8.945 2°34.69 151.1 3.4 164 16.5
2011-08-24 13:31:44 51°8.893 2°34.713 148.8 3 165 16.5
2011-08-24 13:32:44 51°8.851 2°34.73 147.6 2.3 166 16.4
2011-08-24 13:33:44 51°8.817 2°34.739 148.9 1.8 175 16.3
2011-08-24 13:34:44 51°8.79 2°34.742 150.3 1.5 180 16.1
2011-08-24 13:35:44 51°8.764 2°34.742 151.6 1.5 185 15.9
2011-08-24 13:36:44 51°8.741 2°34.74 151.8 1.4 183 16.2
2011-08-24 13:37:44 51°8.718 2°34.739 152.7 1.4 184 16.1
2011-08-24 13:38:44 51°8.697 2°34.735 155.6 1.2 188 16
2011-08-24 13:39:44 51°8.679 2°34.73 157.6 1 193 15.9
2011-08-24 13:40:44 51°8.663 2°34.724 158 1.1 187 15.7
2011-08-24 13:41:44 51°8.642 2°34.724 145.3 1.4 176 15.6
2011-08-24 13:42:44 51°8.621 2°34.737 118.9 1.2 147 14.9
2011-08-24 13:43:44 51°8.61 2°34.76 86.9 1 103 14.5
2011-08-24 13:44:44 51°8.615 2°34.785 53.3 1 49 14.3
2011-08-24 13:45:44 51°8.633 2°34.794 16.9 1.2 356 14.7
2011-08-24 13:46:44 51°8.648 2°34.782 358.5 0.9 322 15.2
2011-08-24 13:47:44 51°8.658 2°34.765 352.5 0.8 306 15.5
2011-08-24 13:48:44 51°8.664 2°34.747 348.5 0.7 292 15.7
2011-08-24 13:49:44 51°8.666 2°34.73 345.3 0.6 279 15.8
2011-08-24 13:50:44 51°8.667 2°34.714 342.5 0.6 275 16
2011-08-24 13:51:44 51°8.667 2°34.699 339.9 0.6 258 15.9
2011-08-24 13:52:44 51°8.665 2°34.684 337.4 0.6 258 16
2011-08-24 13:53:44 51°8.663 2°34.671 334.7 0.4 254 16
2011-08-24 13:54:44 51°8.661 2°34.661 332.6 0.4 247 16
2011-08-24 13:55:44 51°8.658 2°34.65 331.7 0.4 243 16
2011-08-24 13:56:44 51°8.654 2°34.639 330.6 0.4 242 16
2011-08-24 13:57:44 51°8.65 2°34.629 331.1 0.4 238 16
2011-08-24 13:58:44 51°8.647 2°34.619 332.5 0.4 243 16
2011-08-24 13:59:44 51°8.644 2°34.609 335.3 0.4 240 16
2011-08-24 14:00:44 51°8.646 2°34.595 334.3 1.4 311 16.1
2011-08-24 14:01:44 51°8.673 2°34.548 322.6 2.4 310 16.6
2011-08-24 14:02:44 51°8.692 2°34.5 314 1.9 297 16.6
2011-08-24 14:03:44 51°8.703 2°34.46 307.7 1.5 293 16.5
2011-08-24 14:04:44 51°8.71 2°34.428 305.3 1.2 288 16.5
2011-08-24 14:05:44 51°8.715 2°34.403 306.9 0.9 289 16.4
2011-08-24 14:06:44 51°8.72 2°34.385 310.3 0.7 288 16.5
2011-08-24 14:07:44 51°8.723 2°34.368 314 0.6 291 16.5
2011-08-24 14:08:44 51°8.727 2°34.356 318.9 0.5 300 16.4
2011-08-24 14:09:44 51°8.731 2°34.347 323.8 0.4 314 16.7
2011-08-24 14:10:44 51°8.735 2°34.341 328.2 0.3 316 16.6
2011-08-24 14:11:44 51°8.74 2°34.335 333.5 0.7 325 16.6
2011-08-24 14:12:44 51°8.756 2°34.321 347 1.4 333 16.6
2011-08-24 14:13:44 51°8.781 2°34.305 355.6 1.8 344 16.5
2011-08-24 14:14:44 51°8.811 2°34.299 13.2 1.8 1 16.4
2011-08-24 14:15:44 51°8.838 2°34.313 39.2 1.6 34 15.6
2011-08-24 14:16:44 51°8.852 2°34.348 76.7 1.7 83 16.1
2011-08-24 14:17:44 51°8.839 2°34.391 122.6 2 140 16.5
2011-08-24 14:18:44 51°8.805 2°34.421 143.8 2.6 156 16.6
2011-08-24 14:19:44 51°8.762 2°34.449 148.6 3 160 16.7
2011-08-24 14:20:44 51°8.716 2°34.475 145.8 2.7 158 16.6
2011-08-24 14:21:44 51°8.682 2°34.503 132.2 2 147 16.6
2011-08-24 14:22:44 51°8.66 2°34.527 131.4 1.4 148 16.5
2011-08-24 14:23:44 51°8.641 2°34.54 139.1 1.1 164 16.4
2011-08-24 14:24:44 51°8.627 2°34.542 148.7 0.8 186 16.1
2011-08-24 14:25:44 51°8.616 2°34.538 153.1 0.7 197 16.1
2011-08-24 14:26:44 51°8.607 2°34.533 153.6 0.5 204 16
2011-08-24 14:27:44 51°8.602 2°34.529 152.5 0.4 201 15.9
2011-08-24 14:28:44 51°8.597 2°34.524 150.6 0.3 217 15.9
2011-08-24 14:29:44 51°8.595 2°34.518 147.1 0.3 266 15.9
2011-08-24 14:30:44 51°8.596 2°34.509 139.2 0.6 295 16
2011-08-24 14:31:44 51°8.598 2°34.5 116 0.2 156 16
2011-08-24 14:32:44 51°8.594 2°34.519 83.1 1.2 91 16
2011-08-24 14:33:44 51°8.606 2°34.547 41.4 1.5 29 16
2011-08-24 14:34:44 51°8.628 2°34.55 8.6 1.3 346 16.1
2011-08-24 14:35:44 51°8.648 2°34.533 343.4 1.3 321 16.4
2011-08-24 14:36:44 51°8.66 2°34.511 328.8 1.1 304 16.6
2011-08-24 14:37:44 51°8.666 2°34.49 320 0.8 287 16.8
2011-08-24 14:38:44 51°8.67 2°34.47 313.4 0.7 281 16.7
2011-08-24 14:39:44 51°8.672 2°34.454 313 0.6 282 16.7
2011-08-24 14:40:44 51°8.674 2°34.441 314.7 0.5 281 16.6
2011-08-24 14:41:44 51°8.676 2°34.431 320.2 0.4 292 16.6
2011-08-24 14:42:44 51°8.678 2°34.422 325.5 0.3 284 16.7
2011-08-24 14:43:44 51°8.679 2°34.416 330.5 0.3 290 16.6
2011-08-24 14:44:44 51°8.68 2°34.41 334.3 0.2 279 16.6
2011-08-24 14:45:44 51°8.682 2°34.405 335.6 0.2 285 16.6
2011-08-24 14:46:44 51°8.683 2°34.401 335.4 0.2 312 16.6
2011-08-24 14:47:44 51°8.683 2°34.396 333.6 0.2 295 16.7
2011-08-24 14:48:44 51°8.685 2°34.39 331.4 0.2 281 16.6
2011-08-24 14:49:44 51°8.685 2°34.385 330.3 0.2 286 16.5
2011-08-24 14:50:44 51°8.686 2°34.381 329.9 0.2 270 16.6
2011-08-24 14:51:44 51°8.686 2°34.377 329 0.2 261 16.6
2011-08-24 14:52:44 51°8.685 2°34.373 332.9 0.2 278 16.6
2011-08-24 14:53:44 51°8.685 2°34.37 335.9 0.1 232 16.5
2011-08-24 14:54:44 51°8.684 2°34.368 337.2 0.1 260 16.7
2011-08-24 14:55:44 51°8.684 2°34.366 337 0.1 219 16.7
2011-08-24 14:56:44 51°8.685 2°34.362 337.5 0.5 324 16.6
2011-08-24 14:57:46 51°8.707 2°34.349 356.5 2.8 353 16.6
2011-08-24 14:58:44 51°8.746 2°34.394 69 3.4 75 16.6
2011-08-24 14:59:44 51°8.727 2°34.47 121 3 125 16.7
2011-08-24 15:00:44 51°8.69 2°34.52 136.2 3 144 16.9
2011-08-24 15:01:44 51°8.649 2°34.557 147.2 2.6 156 16.5
2011-08-24 15:02:44 51°8.615 2°34.578 149.1 1.8 162 16.1
2011-08-24 15:03:44 51°8.59 2°34.589 153.2 1.2 168 15.7
2011-08-24 15:04:44 51°8.576 2°34.59 158.1 0.8 179 15.2
2011-08-24 15:05:44 51°8.565 2°34.592 157.2 0.6 173 14.9
2011-08-24 15:06:44 51°8.557 2°34.595 151.8 0.4 175 14.7
2011-08-24 15:07:44 51°8.552 2°34.597 146.7 0.3 164 14.6
2011-08-24 15:08:44 51°8.546 2°34.6 144.6 0.3 157 14.4
2011-08-24 15:09:44 51°8.542 2°34.603 141.6 0.2 134 14.3
2011-08-24 15:10:44 51°8.539 2°34.606 140.3 0.3 154 14.1
2011-08-24 15:11:44 51°8.536 2°34.609 141.7 0.2 153 14.2
2011-08-24 15:12:44 51°8.533 2°34.612 143.8 0.2 151 13.9
2011-08-24 15:13:44 51°8.529 2°34.614 144.8 0.2 151 13.6
2011-08-24 15:14:44 51°8.525 2°34.617 145 0.2 163 13.6
2011-08-24 15:15:44 51°8.522 2°34.619 142.8 0.2 145 13.3
2011-08-24 15:16:44 51°8.515 2°34.629 132.5 0.9 139 12.8
2011-08-24 15:17:44 51°8.503 2°34.647 123.8 0.6 147 12.1
2011-08-24 15:18:47 51°8.513 2°34.618 118.2 1.5 297 -999
2011-08-24 15:19:45 51°8.521 2°34.592 108.8 0.7 293 13.8
2011-08-24 15:20:44 51°8.525 2°34.58 104.1 0.4 300 14
2011-08-24 15:21:44 51°8.527 2°34.574 107.9 0.2 300 14.3
2011-08-24 15:22:44 51°8.525 2°34.579 117.7 0.6 127 14
2011-08-24 15:23:44 51°8.515 2°34.596 126.8 1.1 138 13.4
2011-08-24 15:24:44 51°8.501 2°34.616 134.3 1.1 138 12.5
2011-08-24 15:25:44 51°8.488 2°34.63 141.6 0.8 150 11.9
2011-08-24 15:26:44 51°8.481 2°34.636 146.4 0.3 153 11.6
2011-08-24 15:27:44 51°8.482 2°34.635 143.8 0.9 325 11.7
2011-08-24 15:28:44 51°8.498 2°34.606 119 1.4 298 12.5
2011-08-24 15:29:44 51°8.506 2°34.578 105.4 1.1 289 13.2
2011-08-24 15:30:44 51°8.51 2°34.554 93.2 0.7 277 13.9
2011-08-24 15:31:44 51°8.512 2°34.551 90.7 0.3 87 14.1
2011-08-24 15:32:44 51°8.51 2°34.559 103.2 0.3 117 13.7
2011-08-24 15:33:44 51°8.507 2°34.566 114.8 0.4 144 13.6
2011-08-24 15:34:44 51°8.502 2°34.572 126.4 0.4 159 13.3
2011-08-24 15:35:44 51°8.497 2°34.576 133.5 0.3 155 13
2011-08-24 15:36:44 51°8.493 2°34.579 139.1 0.2 153 12.9
2011-08-24 15:37:44 51°8.487 2°34.584 139.4 0.7 143 12.5
2011-08-24 15:38:44 51°8.474 2°34.605 122.1 1.4 128 11.7
2011-08-24 15:39:44 51°8.464 2°34.642 92.9 1.6 97 11
2011-08-24 15:40:44 51°8.47 2°34.683 63.3 1.4 67 10.9
2011-08-24 15:41:44 51°8.481 2°34.712 45.6 1.3 48 10.9
2011-08-24 15:42:44 51°8.497 2°34.736 37.1 1.3 39 11.1
2011-08-24 15:43:44 51°8.516 2°34.755 27.1 1.3 30 11.5
2011-08-24 15:44:44 51°8.535 2°34.767 16 1.3 16 12.1
2011-08-24 15:45:44 51°8.553 2°34.772 3.6 1.1 1 12.8
2011-08-24 15:46:44 51°8.57 2°34.769 351.4 1 347 13.5
2011-08-24 15:47:44 51°8.584 2°34.763 345.4 0.8 348 14.3
2011-08-24 15:48:44 51°8.597 2°34.755 345.6 1 342 14.8
2011-08-24 15:49:44 51°8.616 2°34.749 356 1.3 351 15.3
2011-08-24 15:50:44 51°8.642 2°34.75 14.9 1.7 12 15.9
2011-08-24 15:51:44 51°8.669 2°34.775 44 1.9 46 16.1
2011-08-24 15:52:44 51°8.679 2°34.823 88.9 2 94 15.9
2011-08-24 15:53:44 51°8.668 2°34.861 116.4 1.3 123 15.4
2011-08-24 15:54:44 51°8.657 2°34.884 129.5 0.9 139 15.1
2011-08-24 15:55:44 51°8.649 2°34.896 137.2 0.4 146 14.7
2011-08-24 15:56:44 51°8.645 2°34.901 147.1 0.3 135 14.6
2011-08-24 15:57:44 51°8.643 2°34.907 152.9 0.3 118 14.4
2011-08-24 15:58:44 51°8.641 2°34.913 154 0.2 60 14.2
2011-08-24 15:59:44 51°8.651 2°34.911 139.5 0.8 338 14.7
2011-08-24 16:00:44 51°8.659 2°34.902 119.8 0.5 315 14.9
2011-08-24 16:01:44 51°8.662 2°34.899 112.8 0.5 95 15.1
2011-08-24 16:02:44 51°8.658 2°34.912 126.6 0.5 125 14.9
2011-08-24 16:03:44 51°8.655 2°34.922 132.4 0.5 132 14.7
2011-08-24 16:04:44 51°8.65 2°34.932 143.2 0.4 136 14.4
2011-08-24 16:05:44 51°8.647 2°34.941 149.7 0.4 117 14.1
2011-08-24 16:06:44 51°8.646 2°34.951 150.3 0.4 103 13.9
2011-08-24 16:07:44 51°8.643 2°34.96 151.4 0.4 107 13.9
2011-08-24 16:08:44 51°8.642 2°34.971 150.7 0.4 107 13.6
2011-08-24 16:09:44 51°8.641 2°34.981 148.7 0.5 81 13.5
2011-08-24 16:10:44 51°8.641 2°34.993 146.8 0.4 89 13.6
2011-08-24 16:11:44 51°8.641 2°35.004 146 0.5 85 13.3
2011-08-24 16:12:44 51°8.64 2°35.014 145.6 0.4 97 13.3
2011-08-24 16:13:44 51°8.639 2°35.025 148.2 0.5 85 13
2011-08-24 16:14:44 51°8.638 2°35.036 152 0.4 100 13
2011-08-24 16:15:44 51°8.637 2°35.047 154.1 0.4 93 12.9
2011-08-24 16:16:44 51°8.623 2°35.061 172.6 1.9 170 12.1
2011-08-24 16:17:44 51°8.583 2°35.053 208.2 2.2 198 11
2011-08-24 16:18:44 51°8.552 2°35.013 245 2.6 240 10.7
2011-08-24 16:19:44 51°8.546 2°34.974 270.1 0.9 270 10.8
2011-08-24 16:20:44 51°8.55 2°34.962 290.5 0.4 341 11.1
2011-08-24 16:21:44 51°8.555 2°34.967 314.3 0.4 49 11.2
2011-08-24 16:22:44 51°8.558 2°34.978 338.4 0.5 86 11
2011-08-24 16:23:44 51°8.557 2°34.991 352.1 0.6 98 11
2011-08-24 16:24:44 51°8.555 2°35.007 1.4 0.5 106 11
2011-08-24 16:25:44 51°8.555 2°35.02 4.4 0.7 50 10.8
2011-08-24 16:26:44 51°8.573 2°35.037 10.9 1.7 20 11.2
2011-08-24 16:27:44 51°8.605 2°35.049 0.8 2.1 7 11.8
2011-08-24 16:28:44 51°8.642 2°35.052 354.5 2.3 359 13.2
2011-08-24 16:29:44 51°8.68 2°35.049 348.5 2.3 353 14.4
2011-08-24 16:30:44 51°8.717 2°35.038 343.7 2 354 15.2
2011-08-24 16:31:44 51°8.743 2°35.033 339.5 1.2 354 16.2
2011-08-24 16:32:44 51°8.757 2°35.031 334.7 0.7 357 16.4
2011-08-24 16:33:44 51°8.765 2°35.034 335.7 0.4 36 16.5
2011-08-24 16:34:44 51°8.769 2°35.043 337.1 0.4 67 16.6
2011-08-24 16:35:44 51°8.771 2°35.056 343.2 0.5 70 16.3
2011-08-24 16:36:44 51°8.788 2°35.052 320 2 323 16.8
2011-08-24 16:37:44 51°8.802 2°35.003 276.4 2.3 275 17.1
2011-08-24 16:38:44 51°8.797 2°34.946 256.3 1.8 250 17.2
2011-08-24 16:39:44 51°8.781 2°34.914 219.5 1.3 211 16.9
2011-08-24 16:40:44 51°8.762 2°34.914 177.2 1.1 157 17
2011-08-24 16:41:44 51°8.743 2°34.93 169.1 1.5 156 16.9
2011-08-24 16:42:44 51°8.72 2°34.947 169.3 1.5 152 16.4
2011-08-24 16:43:44 51°8.692 2°34.968 166.9 2.2 155 15.4
2011-08-24 16:44:44 51°8.662 2°34.992 164.5 1.2 142 14.7
2011-08-24 16:45:45 51°8.672 2°35.002 153.5 0.8 17 14.6
2011-08-24 16:46:44 51°8.681 2°35.007 137.1 0.5 38 15
2011-08-24 16:47:44 51°8.685 2°35.02 131 0.6 72 15.1
2011-08-24 16:48:44 51°8.688 2°35.036 135.8 0.6 82 15
2011-08-24 16:49:44 51°8.688 2°35.054 144.2 0.6 92 14.9
2011-08-24 16:50:44 51°8.688 2°35.071 149.4 0.7 95 14.6
2011-08-24 16:51:44 51°8.687 2°35.089 150.9 0.7 97 14.5
2011-08-24 16:52:44 51°8.685 2°35.108 155.6 0.8 95 14.1
2011-08-24 16:53:44 51°8.684 2°35.128 155.1 0.8 93 13.9
2011-08-24 16:54:44 51°8.673 2°35.152 166.4 2 153 13.4
2011-08-24 16:55:44 51°8.636 2°35.156 205.9 2.5 199 12.2
2011-08-24 16:56:44 51°8.609 2°35.119 249.6 1.7 243 11.8
2011-08-24 16:57:44 51°8.61 2°35.091 285 0.9 311 12
2011-08-24 16:58:44 51°8.625 2°35.075 305.7 1.2 332 12.4
2011-08-24 16:59:44 51°8.647 2°35.061 323.1 1.6 345 13.8
2011-08-24 17:00:44 51°8.674 2°35.056 334.8 1.8 358 14.9
2011-08-24 17:01:44 51°8.71 2°35.046 335 2.6 345 15.5
2011-08-24 17:02:44 51°8.756 2°35.023 333.3 3 341 16.9
2011-08-24 17:03:44 51°8.805 2°34.994 331.2 2.9 341 17.3
2011-08-24 17:04:44 51°8.846 2°34.989 356 2.5 7 17.7
2011-08-24 17:05:44 51°8.887 2°35.022 36.4 3.2 44 17.4
2011-08-24 17:06:44 51°8.904 2°35.099 94.7 3.1 95 17.5
2011-08-24 17:07:44 51°8.89 2°35.159 132 1.9 116 17.5
2011-08-24 17:08:44 51°8.875 2°35.199 142.4 1.9 124 17.3
2011-08-24 17:09:44 51°8.853 2°35.24 149 2.2 135 16.9
2011-08-24 17:10:44 51°8.829 2°35.279 155.3 1.7 136 16.8
2011-08-24 17:11:44 51°8.813 2°35.306 162.4 1.2 124 16.2
2011-08-24 17:12:44 51°8.802 2°35.331 165.9 1.1 113 16
2011-08-24 17:13:44 51°8.795 2°35.354 167 0.9 117 15.1
2011-08-24 17:14:44 51°8.79 2°35.378 165.8 1 108 14.8
2011-08-24 17:15:44 51°8.786 2°35.401 167.3 0.9 99 14.8
2011-08-24 17:16:44 51°8.784 2°35.426 166.1 1 91 14.4
2011-08-24 17:17:44 51°8.783 2°35.451 160.2 1 95 13.9
2011-08-24 17:18:44 51°8.781 2°35.478 160.3 1 97 13.7
2011-08-24 17:19:44 51°8.78 2°35.504 159.7 0.9 94 13.5
2011-08-24 17:20:44 51°8.781 2°35.532 156.2 1.1 82 13.5
2011-08-24 17:21:44 51°8.783 2°35.558 154.5 0.9 83 13.1
2011-08-24 17:22:44 51°8.773 2°35.608 116.2 3.4 105 12.4
2011-08-24 17:23:44 51°8.799 2°35.726 57.7 7.3 61 12.2
2011-08-24 17:24:44 51°8.882 2°35.955 61.8 11.9 66 12.5
2011-08-24 17:25:44 51°8.988 2°36.243 61.4 12.9 61 12.9
2011-08-24 17:26:44 51°9.084 2°36.55 63 13.1 61 13
2011-08-24 17:27:44 51°9.167 2°36.872 71.5 13.1 71 12.9
2011-08-24 17:28:44 51°9.241 2°37.193 67.8 12.8 66 12.8
2011-08-24 17:29:44 51°9.319 2°37.512 68.1 12.9 67 12.5
2011-08-24 17:30:44 51°9.396 2°37.832 68.1 12.8 70 12.5
2011-08-24 17:31:44 51°9.476 2°38.146 65 13.1 62 12.4
2011-08-24 17:32:44 51°9.555 2°38.462 70.9 12.8 72 12.4
2011-08-24 17:33:44 51°9.631 2°38.783 68.3 13.2 66 12.2
2011-08-24 17:34:44 51°9.714 2°39.103 69 13.1 71 12.1
2011-08-24 17:35:44 51°9.79 2°39.431 71.1 13.2 69 12.1
2011-08-24 17:36:44 51°9.872 2°39.756 67.1 13.2 66 12
2011-08-24 17:37:44 51°9.957 2°40.072 68.4 12.8 69 12.1
2011-08-24 17:38:44 51°10.04 2°40.396 65.4 13.1 64 12.1
2011-08-24 17:39:44 51°10.122 2°40.718 70.6 13.3 73 11.8
2011-08-24 17:40:44 51°10.209 2°41.038 66.1 13.1 64 12.1
2011-08-24 17:41:44 51°10.28 2°41.359 69.8 12.9 70 11.8
2011-08-24 17:42:44 51°10.368 2°41.675 66.8 13.1 67 11.7
2011-08-24 17:43:44 51°10.458 2°41.992 63.5 12.9 64 12
2011-08-24 17:44:44 51°10.543 2°42.312 68.5 13.1 68 11.9
2011-08-24 17:45:44 51°10.636 2°42.627 65.4 13.1 66 12
2011-08-24 17:46:44 51°10.721 2°42.947 68.4 13.1 68 12.2
2011-08-24 17:47:44 51°10.813 2°43.263 63.6 13 64 12.4
2011-08-24 17:48:44 51°10.901 2°43.579 69 13.3 68 12.5
2011-08-24 17:49:44 51°10.994 2°43.895 63.5 12.9 63 12.6
2011-08-24 17:50:44 51°11.084 2°44.212 67.8 13.2 67 12.8
2011-08-24 17:51:44 51°11.16 2°44.537 68.1 13 68 12.9
2011-08-24 17:52:44 51°11.24 2°44.861 65.6 13 64 13
2011-08-24 17:53:44 51°11.333 2°45.178 66.8 13.5 66 13.2
2011-08-24 17:54:44 51°11.419 2°45.499 65.5 13.3 65 13.2
2011-08-24 17:55:44 51°11.509 2°45.819 68.2 13.2 70 13.3
2011-08-24 17:56:44 51°11.593 2°46.142 68.8 13.1 68 13.4
2011-08-24 17:57:44 51°11.677 2°46.461 68 13.1 66 13.4
2011-08-24 17:58:44 51°11.765 2°46.776 68.2 12.9 69 13.2
2011-08-24 17:59:44 51°11.85 2°47.093 67.3 13.2 65 13.1
2011-08-24 18:00:44 51°11.937 2°47.409 69 13.2 67 12.9
2011-08-24 18:01:44 51°12.038 2°47.714 61.6 13 59 13.1
2011-08-24 18:02:44 51°12.142 2°48.015 63.2 13 65 13
2011-08-24 18:03:44 51°12.24 2°48.318 61.8 12.8 62 13.1
2011-08-24 18:04:44 51°12.353 2°48.609 57.5 13 54 13.2
2011-08-24 18:05:44 51°12.466 2°48.901 59.1 12.8 57 13.2
2011-08-24 18:06:44 51°12.576 2°49.201 58.8 13.2 58 13.1
2011-08-24 18:07:44 51°12.686 2°49.501 61.8 13.2 63 13
2011-08-24 18:08:44 51°12.802 2°49.796 57.6 13.2 55 12.9
2011-08-24 18:09:44 51°12.915 2°50.095 62.6 13.5 63 12.6
2011-08-24 18:10:44 51°13.023 2°50.395 62.3 13 60 12.7
2011-08-24 18:11:44 51°13.133 2°50.698 62.5 13.4 59 12.6
2011-08-24 18:12:44 51°13.243 2°51 61.1 13.1 62 12.4
2011-08-24 18:13:44 51°13.359 2°51.298 58 13.2 58 12.6
2011-08-24 18:14:44 51°13.473 2°51.598 60.5 13.3 59 12.3
2011-08-24 18:15:44 51°13.588 2°51.898 60 13.3 56 12.2
2011-08-24 18:16:44 51°13.708 2°52.192 54.7 13.2 55 12.1
2011-08-24 18:17:44 51°13.83 2°52.484 58.7 13.2 57 12
2011-08-24 18:18:44 51°13.955 2°52.773 53.8 13.1 59 12
2011-08-24 18:19:44 51°14.079 2°53.058 57 13.2 57 11.8
2011-08-24 18:20:44 51°14.199 2°53.354 61.8 13.2 65 11.8
2011-08-24 18:21:44 51°14.306 2°53.654 61.7 12.3 62 11.3
2011-08-24 18:22:44 51°14.407 2°53.93 61 11.5 62 11.4
2011-08-24 18:23:44 51°14.493 2°54.154 59.1 8.6 61 11.5
2011-08-24 18:24:44 51°14.56 2°54.337 62.4 7.6 62 11.7
2011-08-24 18:25:44 51°14.613 2°54.496 65.6 6.2 63 12
2011-08-24 18:26:44 51°14.661 2°54.665 70 6.9 68 13.1
2011-08-24 18:27:44 51°14.659 2°54.818 125.9 4.6 113 13.4
2011-08-24 18:28:44 51°14.636 2°54.915 112.5 5 95 5.6
2011-08-24 18:29:44 51°14.693 2°55.021 8.9 5.4 11 12.4
2011-08-24 18:30:44 51°14.742 2°54.945 263.8 3.7 263 11.8
2011-08-24 18:31:44 51°14.679 2°54.931 164.7 6.6 152 13.1
2011-08-24 18:32:44 51°14.555 2°55.055 152.2 10.8 146 13.4
2011-08-24 18:33:44 51°14.378 2°55.2 151.3 12.3 149 12.9
2011-08-24 18:34:47 51°14.226 2°55.325 151.8 8.1 152 12.9
2011-08-24 18:35:47 51°14.116 2°55.412 153.1 7.4 154 -999
2011-08-24 18:36:47 51°14.003 2°55.497 155 7.9 155 13.2
2011-08-24 18:37:47 51°13.891 2°55.579 154.9 6.8 154 13.2
2011-08-24 18:38:45 51°13.8 2°55.659 146.7 6.4 145 13.4
2011-08-24 18:39:44 51°13.734 2°55.751 133.6 4.5 133 13.6
2011-08-24 18:40:44 51°13.689 2°55.834 130.1 3.9 129 12.1
2011-08-24 18:41:44 51°13.652 2°55.913 123.5 3.6 122 12.5
2011-08-24 18:42:44 51°13.635 2°55.997 96.6 2.7 96 10.6
2011-08-24 18:43:44 51°13.635 2°56.016 108.1 0.3 92 9.1